Time;durP1;ratioP1;P1;durP2;ratioP2;P2;SDS_P1;SDS_P2;PMS_P1;PMS_P2;Temp;Humidity;BMP_temperature;BMP_pressure;BME280_temperature;BME280_humidity;BME280_pressure;Samples;Min_cycle;Max_cycle;Signal;HPM_P1;HPM_P2
2021/07/30 00:01:41;;;;;;;6.63;5.88;;;17.80;96.50;;;;;;5048502;28;20608;-87
2021/07/30 00:04:08;;;;;;;8.20;6.40;;;17.70;96.20;;;;;;5041723;28;20229;-87
2021/07/30 00:06:35;;;;;;;7.28;6.57;;;17.70;96.70;;;;;;5049979;28;20221;-87
2021/07/30 00:09:03;;;;;;;7.45;5.85;;;17.60;96.70;;;;;;5044486;28;20214;-86
2021/07/30 00:11:30;;;;;;;6.50;5.90;;;17.60;96.70;;;;;;5033195;28;20230;-87
2021/07/30 00:13:57;;;;;;;7.32;6.20;;;17.40;96.90;;;;;;5050297;28;20205;-86
2021/07/30 00:16:24;;;;;;;8.77;6.80;;;17.30;97.40;;;;;;5049346;28;20225;-87
2021/07/30 00:18:51;;;;;;;7.40;6.70;;;17.20;97.40;;;;;;5047267;28;20202;-87
2021/07/30 00:21:18;;;;;;;7.65;6.82;;;17.20;97.70;;;;;;5050136;28;20245;-86
2021/07/30 00:23:44;;;;;;;8.13;6.75;;;17.20;97.40;;;;;;5049618;28;20190;-86
2021/07/30 00:26:13;;;;;;;6.93;6.32;;;17.10;97.40;;;;;;5049967;28;20728;-86
2021/07/30 00:28:40;;;;;;;7.63;6.20;;;17.40;97.80;;;;;;5037102;28;20568;-86
2021/07/30 00:31:07;;;;;;;7.55;6.47;;;17.70;97.50;;;;;;5043300;28;20218;-87
2021/07/30 00:33:34;;;;;;;8.93;6.75;;;17.80;96.70;;;;;;5050168;28;20194;-86
2021/07/30 00:36:00;;;;;;;7.22;6.63;;;17.70;96.40;;;;;;5052451;28;20247;-87
2021/07/30 00:38:27;;;;;;;7.32;6.22;;;17.60;97.50;;;;;;5045479;28;20205;-87
2021/07/30 00:40:54;;;;;;;7.03;6.32;;;17.50;97.10;;;;;;5052628;28;20205;-87
2021/07/30 00:43:23;;;;;;;6.97;6.25;;;17.60;97.00;;;;;;5047256;28;20587;-87
2021/07/30 00:45:53;;;;;;;6.88;6.28;;;17.70;96.70;;;;;;5048933;28;20200;-87
2021/07/30 00:48:21;;;;;;;6.75;5.80;;;17.60;96.60;;;;;;5044668;28;20254;-86
2021/07/30 00:50:48;;;;;;;6.85;6.13;;;17.40;97.50;;;;;;5049383;28;20228;-87
2021/07/30 00:53:17;;;;;;;7.03;6.32;;;17.50;96.80;;;;;;5052236;28;20217;-87
2021/07/30 00:55:45;;;;;;;6.82;6.10;;;17.50;96.70;;;;;;5051632;28;20704;-86
2021/07/30 00:58:12;;;;;;;7.32;6.63;;;17.40;97.10;;;;;;5043182;28;20305;-87
2021/07/30 01:00:41;;;;;;;7.07;6.38;;;17.40;97.50;;;;;;5050931;28;20202;-87
2021/07/30 01:03:09;;;;;;;6.90;6.28;;;17.50;97.50;;;;;;5049139;28;20224;-86
2021/07/30 01:05:36;;;;;;;7.53;6.43;;;17.60;96.60;;;;;;5062217;28;20255;-89
2021/07/30 01:08:04;;;;;;;10.00;6.60;;;17.50;96.80;;;;;;5053033;28;20224;-87
2021/07/30 01:10:31;;;;;;;7.20;6.47;;;17.70;96.90;;;;;;5055179;28;20226;-87
2021/07/30 01:12:58;;;;;;;8.07;6.32;;;17.70;96.10;;;;;;5056248;28;20222;-87
2021/07/30 01:15:26;;;;;;;10.35;7.28;;;17.70;96.80;;;;;;5063993;28;20209;-87
2021/07/30 01:17:54;;;;;;;8.18;6.65;;;17.70;96.50;;;;;;5055998;28;20226;-86
2021/07/30 01:20:25;;;;;;;8.63;7.30;;;17.60;96.70;;;;;;5051259;28;20559;-87
2021/07/30 01:22:54;;;;;;;7.95;7.18;;;17.70;96.90;;;;;;5051942;28;20251;-87
2021/07/30 01:25:23;;;;;;;7.60;6.82;;;17.70;96.50;;;;;;5039729;28;20214;-86
2021/07/30 01:27:51;;;;;;;7.75;7.03;;;17.60;96.90;;;;;;5045347;28;20684;-87
2021/07/30 01:30:20;;;;;;;7.75;6.95;;;17.50;97.50;;;;;;5048640;28;20670;-87
2021/07/30 01:32:47;;;;;;;8.02;7.28;;;17.60;97.30;;;;;;5046086;28;20214;-87
2021/07/30 01:35:14;;;;;;;8.18;6.65;;;17.70;97.20;;;;;;5049632;28;20201;-87
2021/07/30 01:37:42;;;;;;;7.10;6.38;;;17.80;96.70;;;;;;5052451;28;20240;-87
2021/07/30 01:40:11;;;;;;;8.35;6.53;;;17.90;96.40;;;;;;5052176;28;20611;-87
2021/07/30 01:42:39;;;;;;;6.82;6.22;;;17.90;96.40;;;;;;5052549;28;20229;-87
2021/07/30 01:45:07;;;;;;;7.25;6.60;;;17.90;96.30;;;;;;5052695;28;20221;-87
2021/07/30 01:47:34;;;;;;;7.15;6.45;;;17.80;96.30;;;;;;5051817;28;20592;-87
2021/07/30 01:50:02;;;;;;;7.57;6.88;;;17.60;96.30;;;;;;5051899;28;20677;-87
2021/07/30 01:52:29;;;;;;;7.32;6.63;;;17.60;97.10;;;;;;5051410;28;20222;-87
2021/07/30 01:54:56;;;;;;;7.10;6.50;;;17.60;96.90;;;;;;5052521;28;20190;-87
2021/07/30 01:57:25;;;;;;;7.53;6.72;;;17.40;97.50;;;;;;5051226;28;20689;-87
2021/07/30 01:59:52;;;;;;;8.52;6.40;;;17.30;97.40;;;;;;5049666;28;20540;-87
2021/07/30 02:02:19;;;;;;;7.03;6.32;;;17.30;97.90;;;;;;5049611;28;20232;-87
2021/07/30 02:04:45;;;;;;;8.32;6.72;;;17.40;97.50;;;;;;5048774;28;20197;-87
2021/07/30 02:07:12;;;;;;;7.43;6.72;;;17.40;97.50;;;;;;5043931;28;20679;-87
2021/07/30 02:09:39;;;;;;;9.02;6.82;;;17.40;97.50;;;;;;5052207;28;20198;-86
2021/07/30 02:12:06;;;;;;;7.13;6.43;;;17.40;97.50;;;;;;5051508;28;20680;-87
2021/07/30 02:14:35;;;;;;;9.15;6.70;;;17.40;97.50;;;;;;5050228;28;20194;-87
2021/07/30 02:17:02;;;;;;;7.30;6.28;;;17.40;97.50;;;;;;5051409;28;20627;-87
2021/07/30 02:19:29;;;;;;;7.75;6.63;;;17.50;97.50;;;;;;5047475;28;20200;-86
2021/07/30 02:21:57;;;;;;;6.88;6.28;;;17.50;97.20;;;;;;5049541;28;20226;-86
2021/07/30 02:24:24;;;;;;;6.95;6.25;;;17.70;96.70;;;;;;5051107;28;20328;-86
2021/07/30 02:26:52;;;;;;;7.50;6.80;;;17.60;97.10;;;;;;5043599;28;20684;-87
2021/07/30 02:29:19;;;;;;;7.90;7.05;;;17.50;97.00;;;;;;5051326;28;20573;-87
2021/07/30 02:31:48;;;;;;;7.07;6.07;;;17.50;97.50;;;;;;5050764;28;20229;-87
2021/07/30 02:34:15;;;;;;;7.40;6.70;;;17.60;97.50;;;;;;5047102;28;20195;-87
2021/07/30 02:36:42;;;;;;;8.10;6.50;;;17.80;97.00;;;;;;5051123;28;20231;-87
2021/07/30 02:39:09;;;;;;;7.65;6.75;;;17.90;96.40;;;;;;5047601;28;20225;-87
2021/07/30 02:41:36;;;;;;;7.63;6.80;;;17.90;96.30;;;;;;5050984;28;20225;-87
2021/07/30 02:44:03;;;;;;;7.45;6.75;;;18.00;96.60;;;;;;5051670;28;20194;-87
2021/07/30 02:46:30;;;;;;;10.10;7.13;;;17.90;96.60;;;;;;5047888;28;20312;-87
2021/07/30 02:48:58;;;;;;;9.18;6.45;;;17.90;96.70;;;;;;5053373;28;20584;-89
2021/07/30 02:51:25;;;;;;;7.63;6.93;;;17.90;96.90;;;;;;5052862;28;20234;-87
2021/07/30 02:53:52;;;;;;;7.35;6.45;;;17.80;97.20;;;;;;5048497;28;20207;-86
2021/07/30 02:56:18;;;;;;;7.55;6.80;;;17.90;97.00;;;;;;5044715;28;20236;-87
2021/07/30 02:58:45;;;;;;;8.50;7.47;;;17.90;97.00;;;;;;5053078;28;20212;-86
2021/07/30 03:01:12;;;;;;;8.23;7.38;;;17.90;97.20;;;;;;5048029;28;20190;-86
2021/07/30 03:03:39;;;;;;;7.30;6.38;;;18.00;96.90;;;;;;5052775;28;20198;-87
2021/07/30 03:06:07;;;;;;;7.70;7.00;;;18.10;96.70;;;;;;5054266;28;20711;-86
2021/07/30 03:08:34;;;;;;;7.60;6.90;;;18.10;96.90;;;;;;5047816;28;20210;-86
2021/07/30 03:11:01;;;;;;;8.57;7.22;;;18.10;96.60;;;;;;5051596;28;20212;-87
2021/07/30 03:13:28;;;;;;;11.13;7.13;;;18.20;96.30;;;;;;5043672;28;20198;-86
2021/07/30 03:15:55;;;;;;;9.05;7.88;;;18.30;96.00;;;;;;5057317;28;20193;-86
2021/07/30 03:18:22;;;;;;;9.07;7.55;;;18.20;96.40;;;;;;5040724;28;20241;-86
2021/07/30 03:20:49;;;;;;;8.60;7.40;;;18.20;96.70;;;;;;5049344;28;20193;-86
2021/07/30 03:23:17;;;;;;;8.23;7.15;;;18.20;96.20;;;;;;5055214;28;20230;-86
2021/07/30 03:25:44;;;;;;;9.98;7.80;;;18.20;96.30;;;;;;5045291;28;20197;-86
2021/07/30 03:28:11;;;;;;;9.02;7.50;;;18.30;96.10;;;;;;5053235;28;20222;-87
2021/07/30 03:30:38;;;;;;;8.65;7.43;;;18.40;95.80;;;;;;5054458;28;20505;-87
2021/07/30 03:33:05;;;;;;;8.00;7.20;;;18.40;95.90;;;;;;5045853;28;20703;-87
2021/07/30 03:35:32;;;;;;;8.77;7.20;;;18.50;95.50;;;;;;5051156;28;20197;-87
2021/07/30 03:37:59;;;;;;;8.40;7.60;;;18.50;95.10;;;;;;5046150;28;20230;-87
2021/07/30 03:40:27;;;;;;;8.00;7.20;;;18.50;95.40;;;;;;5050448;28;20204;-87
2021/07/30 03:42:54;;;;;;;7.60;6.90;;;18.40;95.30;;;;;;5048429;28;20226;-87
2021/07/30 03:45:21;;;;;;;12.73;7.90;;;18.40;95.60;;;;;;5051283;28;20269;-86
2021/07/30 03:47:49;;;;;;;9.18;7.10;;;18.20;95.30;;;;;;5047410;28;20225;-88
2021/07/30 03:50:16;;;;;;;8.35;7.28;;;18.30;95.40;;;;;;5052726;28;20194;-86
2021/07/30 03:52:43;;;;;;;8.82;7.90;;;18.30;95.30;;;;;;5044321;28;20225;-86
2021/07/30 03:55:10;;;;;;;8.57;7.53;;;18.20;95.40;;;;;;5053982;28;20630;-86
2021/07/30 03:57:38;;;;;;;7.82;7.05;;;18.30;95.50;;;;;;5053525;28;20292;-86
2021/07/30 04:00:06;;;;;;;10.30;7.47;;;18.20;95.30;;;;;;5054578;28;20563;-87
2021/07/30 04:02:33;;;;;;;9.02;7.50;;;18.30;95.40;;;;;;5045872;28;20460;-86
2021/07/30 04:05:00;;;;;;;9.43;7.40;;;18.30;95.20;;;;;;5047639;28;20202;-86
2021/07/30 04:07:26;;;;;;;7.63;6.82;;;18.20;95.30;;;;;;5046171;28;20221;-88
2021/07/30 04:09:54;;;;;;;10.38;7.18;;;18.10;95.50;;;;;;5056249;28;20679;-86
2021/07/30 04:12:21;;;;;;;9.05;7.10;;;18.10;95.50;;;;;;5050107;28;20647;-86
2021/07/30 04:14:50;;;;;;;11.02;7.32;;;18.00;96.10;;;;;;5058005;28;20198;-86
2021/07/30 04:17:17;;;;;;;9.43;7.63;;;18.10;95.60;;;;;;5058011;28;20230;-87
2021/07/30 04:19:44;;;;;;;8.05;7.30;;;18.00;95.70;;;;;;5053803;28;20232;-86
2021/07/30 04:22:11;;;;;;;7.70;6.90;;;18.10;95.50;;;;;;5057788;28;20222;-86
2021/07/30 04:24:38;;;;;;;7.68;6.90;;;18.20;94.30;;;;;;5058730;28;20556;-87
2021/07/30 04:27:06;;;;;;;7.95;7.20;;;18.40;94.90;;;;;;5049402;28;20665;-87
2021/07/30 04:29:38;;;;;;;7.78;6.97;;;18.30;94.00;;;;;;5046666;28;20208;-87
2021/07/30 04:32:08;;;;;;;8.00;7.20;;;18.20;95.00;;;;;;5056964;28;20237;-87
2021/07/30 04:34:35;;;;;;;7.90;7.05;;;18.20;94.40;;;;;;5051671;28;20510;-86
2021/07/30 04:37:02;;;;;;;7.60;6.80;;;18.10;94.60;;;;;;5052292;28;20236;-88
2021/07/30 04:39:29;;;;;;;9.52;7.65;;;18.20;95.70;;;;;;5055284;28;20612;-86
2021/07/30 04:41:56;;;;;;;8.77;6.95;;;18.20;94.30;;;;;;5053821;28;20734;-86
2021/07/30 04:44:22;;;;;;;8.90;6.90;;;18.20;95.00;;;;;;5050242;28;20198;-86
2021/07/30 04:46:49;;;;;;;8.25;7.05;;;18.20;95.00;;;;;;5057637;28;20697;-86
2021/07/30 04:49:17;;;;;;;9.88;6.97;;;18.40;94.60;;;;;;5049122;28;20221;-86
2021/07/30 04:51:44;;;;;;;7.80;7.00;;;18.40;94.30;;;;;;5053343;28;20237;-87
2021/07/30 04:54:11;;;;;;;10.02;7.43;;;18.20;94.20;;;;;;5056254;28;20209;-87
2021/07/30 04:56:38;;;;;;;9.80;7.25;;;18.20;94.60;;;;;;5054850;28;20227;-86
2021/07/30 04:59:05;;;;;;;8.02;7.22;;;18.20;94.60;;;;;;5057204;28;20198;-88
2021/07/30 05:01:32;;;;;;;10.20;7.72;;;18.10;94.50;;;;;;5048691;28;20224;-87
2021/07/30 05:03:59;;;;;;;7.95;7.15;;;18.00;94.90;;;;;;5057390;28;20198;-87
2021/07/30 05:06:27;;;;;;;10.20;7.82;;;18.10;95.20;;;;;;5049438;28;20680;-86
2021/07/30 05:08:54;;;;;;;8.63;7.72;;;18.00;95.00;;;;;;5054188;28;20190;-86
2021/07/30 05:11:20;;;;;;;8.50;7.60;;;18.00;95.10;;;;;;5056815;28;20231;-86
2021/07/30 05:13:47;;;;;;;9.02;7.72;;;18.10;94.80;;;;;;5055792;28;20314;-86
2021/07/30 05:16:15;;;;;;;11.98;8.13;;;18.10;94.20;;;;;;5050843;28;20197;-86
2021/07/30 05:18:42;;;;;;;10.93;7.65;;;18.10;94.30;;;;;;5048289;28;20293;-86
2021/07/30 05:21:12;;;;;;;8.70;7.90;;;18.20;93.90;;;;;;5054134;28;20197;-87
2021/07/30 05:23:40;;;;;;;9.52;7.82;;;18.20;93.80;;;;;;5056029;28;20255;-87
2021/07/30 05:26:08;;;;;;;8.40;7.60;;;18.30;94.10;;;;;;5047897;28;20202;-87
2021/07/30 05:28:35;;;;;;;10.75;8.35;;;18.30;94.30;;;;;;5054764;28;20201;-87
2021/07/30 05:31:03;;;;;;;9.80;7.90;;;18.40;93.80;;;;;;5055859;28;20198;-86
2021/07/30 05:33:30;;;;;;;11.32;8.38;;;18.30;93.60;;;;;;5049403;28;20704;-87
2021/07/30 05:35:58;;;;;;;8.77;7.95;;;18.20;93.70;;;;;;5049310;28;20277;-87
2021/07/30 05:38:25;;;;;;;7.80;7.10;;;18.50;93.50;;;;;;5051403;28;20217;-87
2021/07/30 05:40:53;;;;;;;11.45;7.80;;;18.60;93.10;;;;;;5051924;28;20652;-86
2021/07/30 05:43:20;;;;;;;8.80;7.32;;;18.60;92.60;;;;;;5043910;28;20222;-87
2021/07/30 05:45:46;;;;;;;7.70;6.88;;;18.80;92.30;;;;;;5051938;28;20197;-87
2021/07/30 05:48:13;;;;;;;11.95;8.07;;;18.80;92.00;;;;;;5043786;28;20240;-87
2021/07/30 05:50:40;;;;;;;7.95;7.15;;;18.70;91.10;;;;;;5044676;28;20484;-87
2021/07/30 05:53:07;;;;;;;11.05;7.78;;;18.70;91.40;;;;;;5047434;28;20584;-87
2021/07/30 05:55:34;;;;;;;10.32;7.47;;;18.80;90.90;;;;;;5052309;28;20198;-87
2021/07/30 05:58:02;;;;;;;9.80;7.68;;;19.00;89.40;;;;;;5046860;28;20222;-87
2021/07/30 06:00:29;;;;;;;8.05;7.25;;;19.10;89.70;;;;;;5050379;28;20212;-87
2021/07/30 06:02:56;;;;;;;8.85;7.60;;;19.40;88.30;;;;;;5044960;28;20273;-87
2021/07/30 06:05:23;;;;;;;7.32;6.63;;;19.60;86.00;;;;;;5043456;28;20265;-87
2021/07/30 06:07:50;;;;;;;10.38;7.97;;;19.60;87.80;;;;;;5046406;28;20221;-87
2021/07/30 06:10:17;;;;;;;8.20;7.32;;;19.50;86.90;;;;;;5044609;28;20661;-87
2021/07/30 06:12:44;;;;;;;8.15;7.13;;;19.60;86.70;;;;;;5046798;28;20231;-87
2021/07/30 06:15:12;;;;;;;11.07;7.25;;;19.50;87.90;;;;;;5053019;28;20663;-87
2021/07/30 06:17:39;;;;;;;9.50;7.65;;;19.50;87.00;;;;;;5052077;28;20685;-87
2021/07/30 06:20:08;;;;;;;10.57;8.10;;;19.50;86.20;;;;;;5049640;28;20197;-86
2021/07/30 06:22:37;;;;;;;12.18;7.65;;;19.40;85.40;;;;;;5047370;28;20305;-87
2021/07/30 06:25:05;;;;;;;8.65;7.68;;;19.40;85.80;;;;;;5047385;28;20198;-87
2021/07/30 06:27:34;;;;;;;7.97;7.05;;;19.50;85.60;;;;;;5050766;28;20226;-87
2021/07/30 06:30:01;;;;;;;9.10;7.05;;;19.50;85.10;;;;;;5051580;28;20201;-87
2021/07/30 06:32:29;;;;;;;9.63;6.95;;;19.50;85.80;;;;;;5050643;28;20563;-88
2021/07/30 06:34:56;;;;;;;9.35;7.25;;;19.50;85.50;;;;;;5041731;28;20570;-88
2021/07/30 06:37:23;;;;;;;7.10;6.40;;;19.50;85.90;;;;;;5046685;28;20779;-87
2021/07/30 06:39:50;;;;;;;7.72;6.85;;;19.70;84.40;;;;;;5053997;28;20208;-86
2021/07/30 06:42:16;;;;;;;7.80;6.38;;;20.10;82.60;;;;;;5053244;28;20222;-86
2021/07/30 06:44:47;;;;;;;9.02;6.88;;;20.50;81.20;;;;;;5053714;28;20202;-87
2021/07/30 06:47:14;;;;;;;8.18;6.65;;;20.70;81.30;;;;;;5050770;28;20230;-87
2021/07/30 06:49:43;;;;;;;8.50;6.53;;;20.80;80.90;;;;;;5045242;28;20209;-86
2021/07/30 06:52:09;;;;;;;10.60;7.22;;;21.00;81.50;;;;;;5051547;28;20697;-87
2021/07/30 06:54:37;;;;;;;8.50;7.15;;;21.10;81.20;;;;;;5051388;28;20208;-84
2021/07/30 06:57:04;;;;;;;11.40;7.30;;;21.20;81.70;;;;;;5059547;28;20301;-81
2021/07/30 06:59:31;;;;;;;11.05;7.38;;;21.00;81.50;;;;;;5051863;28;20190;-81
2021/07/30 07:01:58;;;;;;;8.88;7.20;;;20.80;82.70;;;;;;5055908;28;20260;-82
2021/07/30 07:04:25;;;;;;;10.88;7.28;;;20.80;84.40;;;;;;5051451;28;20313;-84
2021/07/30 07:06:53;;;;;;;8.20;7.35;;;20.80;85.90;;;;;;5049503;28;20233;-85
2021/07/30 07:09:20;;;;;;;7.82;6.80;;;20.80;87.00;;;;;;5047088;28;20200;-84
2021/07/30 07:11:47;;;;;;;8.35;6.85;;;20.70;88.10;;;;;;5047747;28;20221;-84
2021/07/30 07:14:14;;;;;;;7.72;7.03;;;20.80;86.80;;;;;;5054894;28;20218;-84
2021/07/30 07:16:42;;;;;;;7.53;6.88;;;20.80;88.00;;;;;;5049914;28;20218;-84
2021/07/30 07:19:10;;;;;;;7.57;6.93;;;21.00;88.10;;;;;;5052269;28;20202;-84
2021/07/30 07:21:37;;;;;;;8.18;7.45;;;21.00;86.90;;;;;;5053695;28;20278;-86
2021/07/30 07:24:06;;;;;;;7.68;6.85;;;21.00;86.30;;;;;;5051987;28;20208;-84
2021/07/30 07:26:36;;;;;;;7.57;6.88;;;21.00;85.10;;;;;;5047586;28;20217;-86
2021/07/30 07:29:03;;;;;;;8.23;7.43;;;21.00;85.90;;;;;;5052769;28;20201;-82
2021/07/30 07:31:30;;;;;;;8.05;7.25;;;21.10;86.00;;;;;;5050521;28;20247;-83
2021/07/30 07:33:57;;;;;;;7.50;6.80;;;21.20;85.80;;;;;;5056638;28;20228;-83
2021/07/30 07:36:24;;;;;;;9.07;6.80;;;21.40;82.10;;;;;;5050549;28;20238;-82
2021/07/30 07:38:51;;;;;;;7.97;6.97;;;21.50;81.90;;;;;;5053855;28;20202;-85
2021/07/30 07:41:19;;;;;;;8.70;6.85;;;21.50;81.90;;;;;;5040527;28;20199;-84
2021/07/30 07:43:46;;;;;;;7.30;6.60;;;21.60;82.00;;;;;;5048104;28;20205;-82
2021/07/30 07:46:13;;;;;;;6.95;6.25;;;21.70;82.10;;;;;;5058914;28;20442;-83
2021/07/30 07:48:40;;;;;;;9.13;7.07;;;21.90;82.10;;;;;;5060749;28;20290;-83
2021/07/30 07:51:09;;;;;;;7.47;6.78;;;21.90;79.40;;;;;;5058453;28;20285;-84
2021/07/30 07:53:36;;;;;;;8.00;6.65;;;22.00;79.50;;;;;;5061516;28;20202;-82
2021/07/30 07:56:04;;;;;;;7.45;6.75;;;22.00;79.20;;;;;;5050526;28;20204;-82
2021/07/30 07:58:34;;;;;;;7.28;6.68;;;22.00;77.80;;;;;;5053918;28;20204;-82
2021/07/30 08:01:01;;;;;;;8.40;6.80;;;22.40;76.60;;;;;;5061063;28;20208;-82
2021/07/30 08:03:28;;;;;;;7.47;6.70;;;23.00;73.20;;;;;;5058290;28;20209;-84
2021/07/30 08:05:54;;;;;;;7.28;6.55;;;23.30;68.60;;;;;;5056299;28;20198;-83
2021/07/30 08:08:21;;;;;;;7.80;6.07;;;23.70;67.00;;;;;;5055230;28;20764;-83
2021/07/30 08:10:49;;;;;;;7.00;6.30;;;23.90;62.60;;;;;;5058662;28;20210;-80
2021/07/30 08:13:16;;;;;;;6.78;6.18;;;24.20;59.80;;;;;;5055196;28;20261;-82
2021/07/30 08:15:45;;;;;;;6.90;6.30;;;24.50;60.00;;;;;;5050903;28;20197;-78
2021/07/30 08:18:13;;;;;;;6.82;6.13;;;24.60;56.70;;;;;;5053472;28;20237;-79
2021/07/30 08:20:40;;;;;;;6.72;5.90;;;24.80;58.20;;;;;;5054990;28;20194;-79
2021/07/30 08:23:06;;;;;;;6.28;5.78;;;24.90;56.00;;;;;;5052328;28;20230;-79
2021/07/30 08:25:33;;;;;;;6.40;5.82;;;24.80;55.50;;;;;;5051353;28;20202;-79
2021/07/30 08:28:03;;;;;;;6.32;5.72;;;24.80;55.60;;;;;;5049547;28;20229;-79
2021/07/30 08:30:30;;;;;;;6.20;5.57;;;24.60;54.60;;;;;;5050293;28;20201;-80
2021/07/30 08:32:58;;;;;;;6.00;5.35;;;24.60;55.90;;;;;;5052058;28;20233;-79
2021/07/30 08:35:25;;;;;;;7.15;5.45;;;24.50;56.10;;;;;;5053792;28;20579;-79
2021/07/30 08:37:52;;;;;;;6.90;6.20;;;24.50;57.40;;;;;;5053536;28;20214;-79
2021/07/30 08:40:19;;;;;;;6.22;5.63;;;24.50;60.00;;;;;;5051865;28;20204;-79
2021/07/30 08:42:46;;;;;;;5.95;5.45;;;24.60;60.10;;;;;;5049439;28;20217;-79
2021/07/30 08:45:13;;;;;;;6.18;5.55;;;24.60;54.40;;;;;;5051455;28;20205;-79
2021/07/30 08:47:40;;;;;;;6.55;5.90;;;24.60;56.50;;;;;;5052069;28;20591;-80
2021/07/30 08:50:09;;;;;;;6.55;5.85;;;24.80;51.60;;;;;;5052913;28;20201;-79
2021/07/30 08:52:37;;;;;;;5.82;5.03;;;25.20;52.30;;;;;;5044742;28;20222;-83
2021/07/30 08:55:05;;;;;;;6.22;5.63;;;26.50;48.40;;;;;;5052905;28;20198;-81
2021/07/30 08:57:32;;;;;;;5.70;5.20;;;28.20;41.50;;;;;;5055302;28;20696;-81
2021/07/30 09:00:09;;;;;;;5.47;5.07;;;30.30;33.80;;;;;;5047543;28;20195;-83
2021/07/30 09:02:35;;;;;;;6.60;6.00;;;32.40;27.80;;;;;;5050692;28;20278;-84
2021/07/30 09:05:31;;;;;;;6.30;5.82;;;34.40;22.50;;;;;;5050702;28;20194;-84
2021/07/30 09:07:59;;;;;;;6.53;5.93;;;35.30;19.20;;;;;;5044118;28;20225;-81
2021/07/30 09:10:28;;;;;;;6.65;6.15;;;36.50;18.30;;;;;;5054983;28;20198;-81
2021/07/30 09:13:17;;;;;;;6.30;5.88;;;36.40;18.10;;;;;;5052462;28;20299;-84
2021/07/30 09:15:45;;;;;;;6.63;6.22;;;37.50;17.40;;;;;;5060736;28;20202;-81
2021/07/30 09:18:31;;;;;;;7.00;6.40;;;38.60;15.90;;;;;;5058023;28;20236;-84
2021/07/30 09:21:21;;;;;;;7.18;6.57;;;39.50;13.50;;;;;;5055955;28;20204;-82
2021/07/30 09:23:50;;;;;;;8.05;7.40;;;40.10;12.00;;;;;;5052015;28;20709;-85
2021/07/30 09:26:43;;;;;;;7.78;7.25;;;40.10;12.00;;;;;;5056638;28;20665;-82
2021/07/30 09:29:12;;;;;;;7.38;6.78;;;38.80;13.90;;;;;;5058311;28;20253;-81
2021/07/30 09:31:46;;;;;;;7.03;6.53;;;37.20;14.80;;;;;;5060023;28;20280;-82
2021/07/30 09:34:17;;;;;;;7.65;7.03;;;36.30;16.50;;;;;;5057588;28;20256;-82
2021/07/30 09:36:48;;;;;;;6.70;6.20;;;36.30;17.70;;;;;;5053283;28;20222;-82
2021/07/30 09:39:15;;;;;;;7.10;6.60;;;36.10;15.90;;;;;;5056439;28;20289;-82
2021/07/30 09:41:55;;;;;;;8.90;7.03;;;36.90;16.30;;;;;;5046930;28;20221;-83
2021/07/30 09:44:22;;;;;;;7.70;7.20;;;38.50;13.60;;;;;;5051795;28;20597;-82
2021/07/30 09:47:11;;;;;;;7.85;7.22;;;38.30;13.20;;;;;;5054394;28;20233;-83
2021/07/30 09:49:44;;;;;;;8.15;7.55;;;38.80;13.30;;;;;;5045642;28;20657;-83
2021/07/30 09:52:21;;;;;;;8.02;7.43;;;39.60;11.80;;;;;;5056053;28;20616;-83
2021/07/30 09:54:58;;;;;;;8.27;7.68;;;39.10;12.40;;;;;;5054050;28;20214;-83
2021/07/30 09:57:26;;;;;;;7.72;7.22;;;40.30;11.30;;;;;;5058900;28;20232;-83
2021/07/30 09:59:57;;;;;;;8.70;7.90;;;40.50;11.80;;;;;;5053890;28;20201;-83
2021/07/30 10:02:26;;;;;;;9.00;8.23;;;40.30;10.80;;;;;;5051938;28;20813;-83
2021/07/30 10:04:53;;;;;;;8.30;7.68;;;40.10;10.90;;;;;;5053144;28;20218;-83
2021/07/30 10:07:24;;;;;;;8.95;8.32;;;39.80;11.90;;;;;;5057589;28;20227;-83
2021/07/30 10:10:04;;;;;;;8.07;7.57;;;39.70;11.80;;;;;;5057463;28;20201;-84
2021/07/30 10:12:32;;;;;;;10.80;9.73;;;39.50;11.70;;;;;;5049928;28;20245;-83
2021/07/30 10:15:00;;;;;;;13.02;12.02;;;39.10;11.50;;;;;;5052127;28;20231;-83
2021/07/30 10:17:30;;;;;;;9.70;9.00;;;39.20;12.40;;;;;;5058614;28;20230;-83
2021/07/30 10:20:00;;;;;;;9.05;8.40;;;39.60;10.20;;;;;;5059879;28;20198;-83
2021/07/30 10:22:34;;;;;;;9.25;8.65;;;38.50;11.50;;;;;;5057369;28;20243;-87
2021/07/30 10:25:02;;;;;;;8.98;8.27;;;39.40;11.60;;;;;;5060160;28;20196;-83
2021/07/30 10:27:30;;;;;;;9.32;8.63;;;40.30;10.50;;;;;;5058577;28;20233;-83
2021/07/30 10:30:06;;;;;;;8.98;8.27;;;38.90;10.50;;;;;;5058833;28;20197;-83
2021/07/30 10:32:49;;;;;;;8.60;7.90;;;38.80;11.50;;;;;;5056355;28;20230;-84
2021/07/30 10:35:18;;;;;;;9.07;8.40;;;38.40;13.80;;;;;;5059870;28;20569;-83
2021/07/30 10:37:47;;;;;;;8.80;8.07;;;38.10;14.10;;;;;;5051962;28;20281;-84
2021/07/30 10:40:15;;;;;;;8.52;7.72;;;38.30;11.10;;;;;;5057536;28;20208;-85
2021/07/30 10:43:05;;;;;;;7.47;6.97;;;36.40;14.40;;;;;;5052711;28;20226;-82
2021/07/30 10:45:33;;;;;;;7.72;7.00;;;36.80;13.10;;;;;;5053596;28;20190;-82
2021/07/30 10:48:30;;;;;;;7.28;6.78;;;37.20;13.90;;;;;;5054043;28;20221;-82
2021/07/30 10:50:59;;;;;;;7.00;6.40;;;37.00;12.90;;;;;;5052336;28;20227;-81
2021/07/30 10:53:45;;;;;;;7.22;6.57;;;37.50;12.40;;;;;;5052210;28;20260;-81
2021/07/30 10:56:50;;;;;;;8.23;7.50;;;38.00;12.00;;;;;;5053926;28;20664;-82
2021/07/30 10:59:19;;;;;;;7.32;6.75;;;38.00;12.60;;;;;;5052896;28;20190;-82
2021/07/30 11:02:00;;;;;;;7.50;6.85;;;37.20;12.50;;;;;;5055385;28;20224;-82
2021/07/30 11:04:27;;;;;;;7.35;6.85;;;36.80;14.10;;;;;;5056538;28;20254;-82
2021/07/30 11:06:58;;;;;;;7.20;6.60;;;36.60;14.40;;;;;;5056452;28;20247;-82
2021/07/30 11:09:44;;;;;;;7.75;7.15;;;36.80;15.10;;;;;;5056965;28;20237;-82
2021/07/30 11:12:17;;;;;;;7.13;6.55;;;36.50;15.40;;;;;;5052497;28;20229;-82
2021/07/30 11:14:48;;;;;;;6.47;5.75;;;36.00;16.00;;;;;;5043494;28;20761;-81
2021/07/30 11:17:15;;;;;;;6.53;6.10;;;35.30;15.60;;;;;;5045297;28;20230;-82
2021/07/30 11:19:44;;;;;;;6.53;5.93;;;34.50;17.50;;;;;;5049237;28;20233;-81
2021/07/30 11:22:13;;;;;;;7.22;6.45;;;33.50;18.70;;;;;;5056079;28;20300;-81
2021/07/30 11:24:42;;;;;;;6.30;5.80;;;32.80;18.00;;;;;;5055187;28;20208;-82
2021/07/30 11:27:12;;;;;;;6.10;5.55;;;32.40;18.90;;;;;;5053899;28;20231;-81
2021/07/30 11:29:43;;;;;;;6.38;5.75;;;32.10;21.60;;;;;;5053486;28;20221;-83
2021/07/30 11:32:12;;;;;;;6.40;5.80;;;32.20;21.00;;;;;;5045884;28;20595;-81
2021/07/30 11:34:41;;;;;;;6.55;5.93;;;32.10;21.20;;;;;;5049552;28;20248;-82
2021/07/30 11:37:09;;;;;;;5.68;5.18;;;31.90;22.60;;;;;;5047846;28;20299;-81
2021/07/30 11:39:39;;;;;;;7.00;6.22;;;31.80;19.90;;;;;;5045723;28;20194;-80
2021/07/30 11:42:07;;;;;;;6.07;5.47;;;31.40;20.40;;;;;;5048633;28;20225;-80
2021/07/30 11:44:46;;;;;;;6.25;5.60;;;31.30;21.20;;;;;;5052323;28;20210;-81
2021/07/30 11:47:13;;;;;;;7.88;5.68;;;30.90;23.00;;;;;;5044771;28;20214;-81
2021/07/30 11:49:42;;;;;;;5.75;5.22;;;30.60;23.10;;;;;;5050973;28;20193;-81
2021/07/30 11:52:12;;;;;;;6.53;5.45;;;30.00;21.20;;;;;;5055114;28;20217;-81
2021/07/30 11:54:39;;;;;;;6.50;5.90;;;30.20;25.20;;;;;;5057855;28;20209;-82
2021/07/30 11:57:07;;;;;;;6.20;5.60;;;30.10;23.20;;;;;;5057446;28;20232;-81
2021/07/30 11:59:46;;;;;;;6.13;5.63;;;29.90;25.20;;;;;;5053165;28;20198;-82
2021/07/30 12:02:13;;;;;;;6.63;5.22;;;29.90;25.90;;;;;;5058777;28;20252;-83
2021/07/30 12:04:50;;;;;;;7.32;5.55;;;30.00;25.60;;;;;;5058149;28;20197;-83
2021/07/30 12:07:19;;;;;;;6.05;5.43;;;30.00;22.50;;;;;;5059319;28;20680;-83
2021/07/30 12:10:05;;;;;;;6.57;5.45;;;29.90;22.80;;;;;;5059449;28;20197;-83
2021/07/30 12:12:34;;;;;;;6.28;5.68;;;29.70;24.20;;;;;;5044920;28;20225;-83
2021/07/30 12:15:03;;;;;;;6.72;5.85;;;29.70;23.90;;;;;;5059063;28;20225;-84
2021/07/30 12:17:31;;;;;;;7.78;5.43;;;29.90;25.10;;;;;;5056057;28;20247;-83
2021/07/30 12:20:01;;;;;;;7.32;5.45;;;30.30;25.90;;;;;;5058766;28;20281;-84
2021/07/30 12:22:38;;;;;;;8.77;5.80;;;30.60;24.90;;;;;;5057247;28;20979;-83
2021/07/30 12:25:07;;;;;;;6.53;5.15;;;30.50;24.10;;;;;;5055509;28;20205;-84
2021/07/30 12:27:34;;;;;;;5.88;5.38;;;30.20;22.20;;;;;;5045265;28;20316;-82
2021/07/30 12:30:04;;;;;;;5.82;5.28;;;30.00;21.90;;;;;;5056458;28;20197;-84
2021/07/30 12:32:38;;;;;;;5.72;5.22;;;29.70;24.90;;;;;;5059606;28;20217;-84
2021/07/30 12:35:07;;;;;;;6.30;5.70;;;29.90;21.60;;;;;;5059938;28;20205;-84
2021/07/30 12:37:37;;;;;;;5.70;5.30;;;30.30;22.20;;;;;;5061552;28;20226;-87
2021/07/30 12:40:07;;;;;;;6.32;5.72;;;30.60;21.30;;;;;;5061985;28;20640;-82
2021/07/30 12:42:36;;;;;;;6.13;5.57;;;30.80;24.10;;;;;;5053546;28;20283;-84
2021/07/30 12:45:09;;;;;;;6.75;5.65;;;30.60;22.40;;;;;;5044776;28;20211;-83
2021/07/30 12:47:39;;;;;;;7.03;6.10;;;30.40;22.70;;;;;;5024230;28;20226;-86
2021/07/30 12:50:25;;;;;;;6.35;5.75;;;29.80;21.60;;;;;;5043478;28;20202;-84
2021/07/30 12:53:17;;;;;;;6.68;6.00;;;29.60;22.50;;;;;;5060204;28;20312;-85
2021/07/30 12:56:05;;;;;;;7.53;6.70;;;29.40;25.20;;;;;;5047578;28;20224;-84